createdAt,value
2022-12-14T00:00:24.101Z,30.20
2022-12-14T00:06:27.806Z,29.40
2022-12-14T00:11:48.329Z,30.80
2022-12-14T00:14:23.264Z,29.40
2022-12-14T00:16:55.836Z,29.55
2022-12-14T00:19:32.377Z,27.92
2022-12-14T00:22:06.348Z,29.60
2022-12-14T00:24:44.194Z,30.05
2022-12-14T00:27:15.783Z,28.92
2022-12-14T00:29:44.840Z,30.17
2022-12-14T00:32:11.943Z,30.45
2022-12-14T00:34:57.783Z,29.08
2022-12-14T00:44:05.997Z,27.45
2022-12-14T00:46:44.750Z,29.38
2022-12-14T00:52:33.799Z,29.55
2022-12-14T01:15:15.178Z,29.27
2022-12-14T01:17:41.816Z,30.65
2022-12-14T01:20:12.171Z,29.48
2022-12-14T01:22:39.070Z,20.92
2022-12-14T01:25:12.330Z,28.58
2022-12-14T01:31:19.395Z,27.75
2022-12-14T01:34:03.850Z,29.42
2022-12-14T01:36:45.576Z,30.13
2022-12-14T01:54:11.572Z,28.65
2022-12-14T02:03:16.171Z,28.80
2022-12-14T02:16:04.237Z,29.30
2022-12-14T02:18:50.403Z,28.70
2022-12-14T02:21:52.269Z,28.70
2022-12-14T02:25:13.332Z,28.77
2022-12-14T02:28:41.894Z,30.67
2022-12-14T02:31:37.310Z,27.73
2022-12-14T02:34:30.432Z,28.90
2022-12-14T02:37:31.034Z,27.50
2022-12-14T02:43:41.219Z,26.60
2022-12-14T02:46:52.181Z,27.77
2022-12-14T02:57:00.507Z,29.60
2022-12-14T03:02:56.284Z,29.40
2022-12-14T03:09:14.426Z,29.25
2022-12-14T03:12:26.016Z,29.08
2022-12-14T03:18:43.816Z,31.25
2022-12-14T03:22:05.943Z,29.48
2022-12-14T03:24:46.004Z,28.50
2022-12-14T03:28:04.298Z,29.30
2022-12-14T03:31:36.226Z,30.60
2022-12-14T03:34:54.763Z,28.02
2022-12-14T03:50:58.144Z,25.90
2022-12-14T04:16:34.199Z,27.08
2022-12-14T04:19:30.248Z,27.23
2022-12-14T04:22:22.015Z,24.90
2022-12-14T04:32:15.098Z,27.17
2022-12-14T04:35:13.159Z,25.73
2022-12-14T04:38:43.999Z,24.13
2022-12-14T04:44:54.991Z,25.15
2022-12-14T04:54:46.955Z,25.27
2022-12-14T04:58:00.722Z,26.02
2022-12-14T05:04:15.569Z,25.80
2022-12-14T05:07:44.532Z,26.23
2022-12-14T05:14:08.870Z,25.73
2022-12-14T05:20:36.403Z,24.65
2022-12-14T05:26:31.843Z,24.00
2022-12-14T05:29:16.799Z,25.55
2022-12-14T05:33:05.245Z,26.38
2022-12-14T05:38:58.742Z,26.95
2022-12-14T05:41:47.175Z,25.20
2022-12-14T05:50:54.626Z,26.40
2022-12-14T05:53:59.395Z,26.83
2022-12-14T05:57:35.548Z,24.92
2022-12-14T06:00:33.240Z,25.55
2022-12-14T06:03:12.662Z,26.67
2022-12-14T06:05:44.209Z,25.92
2022-12-14T06:11:34.220Z,26.60
2022-12-14T06:14:17.239Z,25.80
2022-12-14T06:16:57.442Z,24.58
2022-12-14T06:19:40.276Z,24.50
2022-12-14T06:22:22.288Z,25.15
2022-12-14T06:25:01.267Z,26.52
2022-12-14T06:28:04.083Z,25.23
2022-12-14T06:30:54.627Z,24.98
2022-12-14T06:33:26.385Z,18.25
2022-12-14T06:35:58.538Z,25.67
2022-12-14T06:38:36.680Z,30.42
2022-12-14T06:41:33.920Z,27.38
2022-12-14T06:44:13.599Z,25.83
2022-12-14T06:46:50.479Z,24.63
2022-12-14T06:52:48.987Z,25.90
2022-12-14T06:55:19.305Z,24.17
2022-12-14T06:57:51.778Z,25.63
2022-12-14T07:00:27.745Z,25.77
2022-12-14T07:03:06.872Z,25.42
2022-12-14T07:06:33.745Z,25.73
2022-12-14T07:09:11.905Z,25.25
2022-12-14T07:14:28.430Z,24.73
2022-12-14T07:17:06.655Z,24.23
2022-12-14T07:20:04.173Z,25.13
2022-12-14T07:22:44.288Z,24.05
2022-12-14T07:25:48.028Z,24.33
2022-12-14T07:32:10.182Z,24.25
2022-12-14T07:35:24.405Z,24.30
2022-12-14T07:38:08.870Z,23.20
2022-12-14T07:40:44.591Z,23.85
2022-12-14T07:43:27.782Z,25.50
2022-12-14T07:46:36.074Z,25.05
2022-12-14T07:49:41.050Z,23.58
2022-12-14T07:52:34.177Z,24.95
2022-12-14T08:01:48.771Z,26.08
2022-12-14T08:04:22.660Z,24.55
2022-12-14T08:07:16.693Z,25.25
2022-12-14T08:10:04.094Z,27.15
2022-12-14T08:13:10.079Z,25.65
2022-12-14T08:15:42.320Z,25.05
2022-12-14T08:18:12.399Z,27.30
2022-12-14T08:20:53.093Z,26.97
2022-12-14T08:26:18.850Z,23.77
2022-12-14T08:32:08.661Z,24.70
2022-12-14T08:37:27.613Z,24.90
2022-12-14T08:39:55.206Z,25.40
2022-12-14T08:42:33.305Z,24.40
2022-12-14T08:45:05.536Z,25.60
2022-12-14T08:47:42.650Z,25.25
2022-12-14T08:50:13.252Z,24.40
2022-12-14T08:52:49.380Z,24.02
2022-12-14T08:58:44.566Z,24.17
2022-12-14T09:01:54.224Z,24.50
2022-12-14T09:05:15.579Z,25.65
2022-12-14T09:08:02.101Z,25.17
2022-12-14T09:14:06.315Z,24.45
2022-12-14T09:20:22.818Z,27.00
2022-12-14T09:23:43.554Z,25.63
2022-12-14T09:29:59.178Z,24.88
2022-12-14T09:32:39.963Z,25.02
2022-12-14T09:37:54.269Z,24.58
2022-12-14T09:40:40.772Z,25.58
2022-12-14T09:43:19.476Z,23.88
2022-12-14T09:46:04.680Z,23.42
2022-12-14T09:51:37.115Z,25.42
2022-12-14T09:54:21.371Z,24.13
2022-12-14T09:59:59.469Z,22.90
2022-12-14T10:02:39.396Z,24.02
2022-12-14T10:05:40.927Z,22.48
2022-12-14T10:08:34.804Z,21.77
2022-12-14T10:11:27.985Z,21.40
2022-12-14T10:14:26.083Z,21.27
2022-12-14T10:17:07.161Z,20.63
2022-12-14T10:22:44.229Z,20.23
2022-12-14T10:25:23.098Z,20.48
2022-12-14T10:28:10.800Z,19.38
2022-12-14T10:30:42.837Z,19.77
2022-12-14T10:33:22.218Z,18.80
2022-12-14T10:35:54.282Z,19.00
2022-12-14T10:38:27.446Z,19.23
2022-12-14T10:41:04.265Z,19.52
2022-12-14T10:47:22.487Z,18.60
2022-12-14T10:50:26.437Z,17.38
2022-12-14T10:53:05.468Z,16.98
2022-12-14T11:06:06.905Z,17.90
2022-12-14T11:12:58.071Z,16.75
2022-12-14T11:16:21.677Z,15.65
2022-12-14T11:19:30.891Z,14.52
2022-12-14T11:22:21.950Z,14.73
2022-12-14T11:24:53.871Z,14.90
2022-12-14T11:27:21.681Z,16.17
2022-12-14T11:29:50.620Z,16.73
2022-12-14T11:32:23.126Z,16.73
2022-12-14T11:34:55.939Z,16.42
2022-12-14T11:37:29.798Z,16.50
2022-12-14T11:39:59.128Z,15.75
2022-12-14T11:42:26.742Z,14.88
2022-12-14T11:45:18.885Z,16.70
2022-12-14T11:47:54.647Z,16.08
2022-12-14T11:50:31.403Z,18.00
2022-12-14T11:53:11.209Z,17.40
2022-12-14T11:55:45.579Z,16.47
2022-12-14T11:58:17.343Z,15.48
2022-12-14T12:00:47.729Z,15.68
2022-12-14T12:03:21.431Z,12.73
2022-12-14T12:05:49.461Z,15.60
2022-12-14T12:08:27.356Z,16.25
2022-12-14T12:11:02.862Z,15.70
2022-12-14T12:13:40.433Z,15.70
2022-12-14T12:16:23.819Z,14.25
2022-12-14T12:19:07.807Z,15.18
2022-12-14T12:21:47.375Z,15.55
2022-12-14T12:24:21.851Z,14.13
2022-12-14T12:27:02.717Z,14.00
2022-12-14T12:29:38.898Z,12.43
2022-12-14T12:32:14.278Z,13.55
2022-12-14T12:34:50.282Z,13.73
2022-12-14T12:37:28.464Z,13.02
2022-12-14T12:40:04.708Z,13.18
2022-12-14T12:42:41.949Z,13.30
2022-12-14T12:45:16.616Z,12.25
2022-12-14T12:47:50.731Z,13.68
2022-12-14T12:50:21.654Z,13.73
2022-12-14T12:53:10.687Z,12.63
2022-12-14T12:56:00.227Z,12.57
2022-12-14T12:58:35.026Z,13.25
2022-12-14T13:01:23.305Z,12.10
2022-12-14T13:04:31.280Z,13.18
2022-12-14T13:07:06.333Z,12.57
2022-12-14T13:10:06.040Z,11.85
2022-12-14T13:12:47.873Z,12.43
2022-12-14T13:15:38.668Z,11.13
2022-12-14T13:18:48.734Z,11.75
2022-12-14T13:21:41.310Z,11.10
2022-12-14T13:27:57.257Z,10.48
2022-12-14T13:31:29.181Z,10.68
2022-12-14T13:34:34.103Z,10.55
2022-12-14T13:37:32.387Z,11.50
2022-12-14T13:40:59.843Z,10.98
2022-12-14T13:44:08.562Z,9.93
2022-12-14T13:46:38.426Z,10.35
2022-12-14T13:49:19.977Z,10.48
2022-12-14T13:51:50.970Z,10.32
2022-12-14T13:54:21.670Z,11.52
2022-12-14T13:56:49.603Z,11.00
2022-12-14T13:59:31.508Z,10.98
2022-12-14T14:02:29.944Z,12.27
2022-12-14T14:05:32.648Z,11.93
2022-12-14T14:08:11.494Z,11.30
2022-12-14T14:10:42.059Z,10.88
2022-12-14T14:13:41.437Z,11.17
2022-12-14T14:16:28.406Z,11.18
2022-12-14T14:19:03.176Z,12.18
2022-12-14T14:21:58.800Z,11.88
2022-12-14T14:24:26.709Z,11.68
2022-12-14T14:27:09.234Z,13.00
2022-12-14T14:29:45.398Z,12.68
2022-12-14T14:32:32.316Z,12.73
2022-12-14T14:35:02.351Z,13.02
2022-12-14T14:37:33.809Z,13.23
2022-12-14T14:40:18.682Z,12.73
2022-12-14T14:43:08.380Z,12.45
2022-12-14T14:45:42.424Z,11.57
2022-12-14T14:48:18.580Z,12.30
2022-12-14T14:51:24.006Z,12.65
2022-12-14T14:57:37.307Z,12.50
2022-12-14T15:01:33.033Z,13.52
2022-12-14T15:03:43.994Z,13.13
2022-12-14T15:10:22.672Z,13.23
2022-12-14T15:12:53.755Z,13.43
2022-12-14T15:15:33.112Z,14.43
2022-12-14T15:18:15.184Z,14.35
2022-12-14T15:21:03.408Z,14.23
2022-12-14T15:23:36.862Z,13.75
2022-12-14T15:26:16.242Z,13.77
2022-12-14T15:28:50.372Z,14.45
2022-12-14T15:31:30.133Z,14.43
2022-12-14T15:34:07.606Z,14.98
2022-12-14T15:36:44.133Z,13.75
2022-12-14T15:39:28.820Z,13.80
2022-12-14T15:42:05.171Z,13.40
2022-12-14T15:44:35.072Z,14.43
2022-12-14T15:47:25.079Z,13.68
2022-12-14T15:49:59.794Z,14.75
2022-12-14T15:52:30.402Z,14.93
2022-12-14T15:55:35.381Z,14.35
2022-12-14T15:58:14.754Z,15.18
2022-12-14T16:01:06.233Z,15.30
2022-12-14T16:07:17.072Z,15.95
2022-12-14T16:09:55.090Z,16.63
2022-12-14T16:12:45.202Z,16.42
2022-12-14T16:16:00.455Z,14.75
2022-12-14T16:18:50.752Z,14.60
2022-12-14T16:21:33.174Z,13.23
2022-12-14T16:24:19.991Z,14.40
2022-12-14T16:27:12.593Z,13.20
2022-12-14T16:30:07.415Z,13.82
2022-12-14T16:32:36.580Z,13.27
2022-12-14T16:35:17.384Z,13.23
2022-12-14T16:37:47.396Z,14.65
2022-12-14T16:40:46.157Z,14.43
2022-12-14T16:43:31.404Z,13.75
2022-12-14T16:46:13.200Z,12.85
2022-12-14T16:49:17.654Z,14.55
2022-12-14T16:52:08.567Z,14.60
2022-12-14T16:54:42.950Z,13.35
2022-12-14T16:57:22.496Z,16.00
2022-12-14T16:59:58.875Z,16.38
2022-12-14T17:02:34.194Z,17.65
2022-12-14T17:05:14.360Z,17.33
2022-12-14T17:07:41.501Z,16.67
2022-12-14T17:10:15.052Z,18.42
2022-12-14T17:12:42.187Z,16.25
2022-12-14T17:15:16.854Z,16.92
2022-12-14T17:17:50.062Z,16.92
2022-12-14T17:20:22.781Z,15.45
2022-12-14T17:22:50.422Z,16.63
2022-12-14T17:25:22.003Z,16.30
2022-12-14T17:27:49.508Z,15.20
2022-12-14T17:30:19.472Z,16.73
2022-12-14T17:32:54.250Z,16.50
2022-12-14T17:35:25.951Z,16.50
2022-12-14T17:37:53.258Z,17.08
2022-12-14T17:40:22.522Z,16.00
2022-12-14T17:42:53.952Z,15.48
2022-12-14T17:45:23.173Z,16.85
2022-12-14T17:47:52.880Z,16.67
2022-12-14T17:50:20.587Z,15.43
2022-12-14T17:52:48.457Z,16.67
2022-12-14T17:55:17.686Z,16.60
2022-12-14T17:57:47.815Z,14.43
2022-12-14T18:00:19.793Z,16.45
2022-12-14T18:02:46.744Z,15.65
2022-12-14T18:05:21.499Z,15.55
2022-12-14T18:07:50.230Z,16.05
2022-12-14T18:10:18.058Z,14.77
2022-12-14T18:12:50.905Z,23.92
2022-12-14T18:15:21.454Z,33.65
2022-12-14T18:17:50.679Z,23.83
2022-12-14T18:20:23.806Z,21.15
2022-12-14T18:22:51.518Z,18.02
2022-12-14T18:25:30.818Z,15.80
2022-12-14T18:27:58.034Z,15.48
2022-12-14T18:30:25.204Z,15.50
2022-12-14T18:32:52.620Z,15.50
2022-12-14T18:35:34.869Z,16.17
2022-12-14T18:38:02.228Z,15.02
2022-12-14T18:40:33.329Z,16.08
2022-12-14T18:45:35.872Z,14.48
2022-12-14T18:48:07.099Z,14.15
2022-12-14T18:53:17.921Z,13.27
2022-12-14T18:55:58.590Z,15.32
2022-12-14T18:58:33.985Z,14.23
2022-12-14T19:01:06.970Z,14.15
2022-12-14T19:03:50.598Z,13.43
2022-12-14T19:09:20.191Z,16.15
2022-12-14T19:11:49.326Z,14.85
2022-12-14T19:14:20.609Z,14.90
2022-12-14T19:19:15.854Z,15.10
2022-12-14T19:21:45.689Z,13.20
2022-12-14T19:24:15.668Z,13.93
2022-12-14T19:26:52.998Z,14.43
2022-12-14T19:29:22.900Z,13.32
2022-12-14T19:32:04.834Z,13.43
2022-12-14T19:34:32.518Z,12.90
2022-12-14T19:37:06.343Z,11.52
2022-12-14T19:39:40.564Z,12.48
2022-12-14T19:42:09.483Z,12.50
2022-12-14T19:44:36.909Z,12.93
2022-12-14T19:47:15.131Z,13.05
2022-12-14T19:49:41.935Z,12.82
2022-12-14T19:52:10.292Z,13.35
2022-12-14T19:54:48.205Z,12.73
2022-12-14T19:57:15.111Z,12.82
2022-12-14T19:59:42.198Z,12.98
2022-12-14T20:02:12.172Z,13.90
2022-12-14T20:04:47.958Z,12.95
2022-12-14T20:07:53.319Z,13.70
2022-12-14T20:10:18.031Z,12.77
2022-12-14T20:12:58.296Z,13.20
2022-12-14T20:16:24.063Z,13.13
2022-12-14T20:19:21.969Z,12.82
2022-12-14T20:21:50.422Z,13.32
2022-12-14T20:24:31.747Z,13.02
2022-12-14T20:27:11.374Z,13.25
2022-12-14T20:33:08.833Z,13.10
2022-12-14T20:35:54.326Z,13.52
2022-12-14T20:38:31.050Z,12.85
2022-12-14T20:41:17.904Z,13.32
2022-12-14T20:43:48.460Z,14.30
2022-12-14T20:46:41.136Z,15.15
2022-12-14T20:49:34.483Z,14.18
2022-12-14T20:52:22.870Z,14.50
2022-12-14T20:54:52.123Z,15.05
2022-12-14T20:57:29.690Z,13.38
2022-12-14T21:00:05.073Z,12.98
2022-12-14T21:02:32.521Z,12.60
2022-12-14T21:05:05.581Z,12.88
2022-12-14T21:07:35.552Z,13.25
2022-12-14T21:10:09.844Z,12.73
2022-12-14T21:13:13.372Z,12.52
2022-12-14T21:27:55.890Z,11.48
2022-12-14T21:30:48.815Z,12.23
2022-12-14T21:33:50.303Z,13.25
2022-12-14T21:36:25.447Z,12.70
2022-12-14T21:39:00.860Z,13.60
2022-12-14T21:41:37.932Z,12.20
2022-12-14T21:44:11.016Z,11.52
2022-12-14T21:49:44.032Z,9.20
2022-12-14T21:52:20.310Z,8.45
2022-12-14T21:54:54.932Z,7.53
2022-12-14T21:57:26.265Z,8.07
2022-12-14T21:59:55.980Z,7.13
2022-12-14T22:02:25.001Z,7.97
2022-12-14T22:04:53.561Z,6.45
2022-12-14T22:07:21.103Z,6.63
2022-12-14T22:09:49.685Z,6.63
2022-12-14T22:12:22.900Z,7.15
2022-12-14T22:14:55.341Z,6.97
2022-12-14T22:17:24.342Z,6.82
2022-12-14T22:19:51.210Z,6.40
2022-12-14T22:22:23.175Z,7.10
2022-12-14T22:24:53.773Z,7.45
2022-12-14T22:27:20.538Z,8.13
2022-12-14T22:29:52.184Z,8.70
2022-12-14T22:32:19.138Z,8.20
2022-12-14T22:34:48.745Z,8.45
2022-12-14T22:37:16.007Z,9.25
2022-12-14T22:39:47.757Z,8.45
2022-12-14T22:42:14.570Z,8.63
2022-12-14T22:44:41.529Z,8.73
2022-12-14T22:47:11.282Z,9.00
2022-12-14T22:49:43.035Z,9.05
2022-12-14T22:52:12.919Z,8.85
2022-12-14T22:54:39.945Z,8.90
2022-12-14T22:57:19.002Z,8.75
2022-12-14T22:59:52.392Z,11.82
2022-12-14T23:02:22.439Z,8.65
2022-12-14T23:04:52.825Z,6.53
2022-12-14T23:07:22.183Z,6.50
2022-12-14T23:09:50.729Z,8.30
2022-12-14T23:12:21.843Z,8.30
2022-12-14T23:14:49.290Z,7.22
2022-12-14T23:17:18.714Z,8.50
2022-12-14T23:19:47.767Z,7.93
2022-12-14T23:22:18.750Z,8.52
2022-12-14T23:24:49.106Z,8.10
2022-12-14T23:27:28.850Z,6.47
2022-12-14T23:29:58.686Z,7.65
2022-12-14T23:32:25.751Z,8.10
2022-12-14T23:35:04.238Z,8.48
2022-12-14T23:37:42.713Z,7.70
2022-12-14T23:40:14.148Z,7.85
2022-12-14T23:42:49.437Z,6.90
2022-12-14T23:45:27.543Z,6.90
2022-12-14T23:48:03.414Z,6.20
2022-12-14T23:50:33.420Z,6.47
2022-12-14T23:53:10.606Z,6.60
2022-12-14T23:55:43.406Z,6.55
2022-12-14T23:58:14.726Z,6.32
